Time;durP1;ratioP1;P1;durP2;ratioP2;P2;SDS_P1;SDS_P2;PMS_P1;PMS_P2;Temp;Humidity;BMP_temperature;BMP_pressure;BME280_temperature;BME280_humidity;BME280_pressure;Samples;Min_cycle;Max_cycle;Signal;HPM_P1;HPM_P2
2022/02/07 00:00:02;;;;;;;1.82;1.45;;;;;;;3.18;81.05;98542.18;1692721;84;21006;-87
2022/02/07 00:02:24;;;;;;;4.58;1.30;;;;;;;3.20;81.15;98537.45;1718311;83;21456;-87
2022/02/07 00:04:51;;;;;;;5.15;1.40;;;;;;;3.20;81.06;98550.88;1730491;82;20962;-88
2022/02/07 00:07:19;;;;;;;3.15;1.20;;;;;;;3.20;80.93;98555.66;1720304;82;20984;-88
2022/02/07 00:09:46;;;;;;;7.45;1.40;;;;;;;3.23;80.77;98554.82;1720284;82;21874;-87
2022/02/07 00:12:13;;;;;;;4.70;1.45;;;;;;;3.26;80.66;98563.56;1720109;82;21421;-86
2022/02/07 00:14:39;;;;;;;2.83;1.62;;;;;;;3.35;80.74;98560.27;1720029;82;20982;-89
2022/02/07 00:17:06;;;;;;;4.28;1.65;;;;;;;3.43;80.64;98563.00;1720186;83;20979;-86
2022/02/07 00:19:33;;;;;;;6.30;1.70;;;;;;;3.52;80.71;98563.61;1719233;82;21089;-86
2022/02/07 00:22:00;;;;;;;8.55;2.17;;;;;;;3.59;80.69;98568.94;1711339;82;21739;-86
2022/02/07 00:24:27;;;;;;;5.30;1.80;;;;;;;3.67;80.68;98572.97;1723152;81;20998;-87
2022/02/07 00:26:53;;;;;;;3.75;1.47;;;;;;;3.75;80.64;98571.37;1720367;82;21436;-86
2022/02/07 00:29:20;;;;;;;4.58;1.55;;;;;;;3.80;80.59;98576.67;1720371;82;21009;-87
2022/02/07 00:31:47;;;;;;;6.12;1.52;;;;;;;3.87;80.48;98587.20;1720323;83;20974;-86
2022/02/07 00:34:13;;;;;;;5.87;1.30;;;;;;;3.88;80.17;98586.34;1720203;82;21127;-87
2022/02/07 00:36:40;;;;;;;5.25;1.50;;;;;;;3.86;79.95;98593.24;1720207;82;20995;-87
2022/02/07 00:39:14;;;;;;;5.25;1.50;;;;;;;3.87;79.86;98606.72;1720479;83;21476;-88
2022/02/07 00:41:48;;;;;;;3.60;1.20;;;;;;;3.90;79.85;98609.80;1719497;83;21397;-87
2022/02/07 00:44:15;;;;;;;8.80;1.72;;;;;;;3.94;79.84;98610.72;1708917;83;20964;-87
2022/02/07 00:46:46;;;;;;;6.75;1.62;;;;;;;3.94;79.72;98613.33;1709327;84;21736;-87
2022/02/07 00:49:09;;;;;;;5.72;1.50;;;;;;;3.97;79.69;98623.37;1708712;84;20975;-87
2022/02/07 00:51:37;;;;;;;7.42;1.90;;;;;;;3.99;79.66;98627.30;1709526;82;21435;-87
2022/02/07 00:54:04;;;;;;;5.47;1.65;;;;;;;3.97;79.52;98626.41;1704773;83;20995;-86
2022/02/07 00:56:30;;;;;;;5.03;1.42;;;;;;;3.95;79.42;98621.16;1710094;83;21436;-87
2022/02/07 00:58:57;;;;;;;7.85;1.62;;;;;;;3.89;79.24;98628.44;1720091;83;21777;-87
2022/02/07 01:01:27;;;;;;;6.17;1.87;;;;;;;3.81;79.19;98631.75;1720728;82;21523;-87
2022/02/07 01:03:53;;;;;;;7.72;1.82;;;;;;;3.77;79.25;98637.75;1722399;81;20957;-86
2022/02/07 01:06:20;;;;;;;7.92;1.90;;;;;;;3.74;79.29;98645.52;1719016;83;21219;-86
2022/02/07 01:08:51;;;;;;;6.58;1.45;;;;;;;3.70;79.33;98653.27;1685501;85;21161;-86
2022/02/07 01:11:51;;;;;;;6.20;1.85;;;;;;;3.72;79.40;98662.80;1685183;84;21743;-87
2022/02/07 01:14:14;;;;;;;7.08;1.60;;;;;;;3.75;79.51;98658.97;1682412;83;21019;-86
2022/02/07 01:19:36;;;;;;;6.75;1.77;;;;;;;3.79;79.43;98665.98;1685512;85;20992;-86
2022/02/07 01:54:35;;;;;;;6.67;1.62;;;;;;;3.30;79.47;98705.80;1685526;85;21011;-85
2022/02/07 01:56:53;;;;;;;10.15;2.00;;;;;;;3.37;79.56;98715.89;1684245;83;21500;-85
2022/02/07 01:59:20;;;;;;;7.75;1.75;;;;;;;3.45;79.67;98712.15;1685438;84;20984;-85
2022/02/07 02:01:46;;;;;;;4.62;1.50;;;;;;;3.54;79.64;98711.47;1685361;84;21019;-87
2022/02/07 02:04:13;;;;;;;5.17;2.08;;;;;;;3.61;79.61;98716.83;1685268;84;21980;-86
2022/02/07 02:06:40;;;;;;;5.12;1.70;;;;;;;3.66;79.56;98721.70;1685357;85;21490;-85
2022/02/07 02:09:06;;;;;;;7.78;2.30;;;;;;;3.73;79.54;98722.69;1667830;85;20991;-86
2022/02/07 02:11:37;;;;;;;6.05;1.85;;;;;;;3.78;79.38;98729.30;1685352;84;21035;-86
2022/02/07 02:14:20;;;;;;;8.68;2.27;;;;;;;3.80;79.24;98728.91;1685438;85;21007;-86
2022/02/07 02:33:43;;;;;;;10.63;2.25;;;;;;;4.12;78.99;98747.72;1745654;81;20960;-86
2022/02/07 02:45:40;;;;;;;5.87;1.67;;;;;;;4.23;78.74;98753.14;1745364;82;20967;-84
2022/02/07 02:48:08;;;;;;;10.38;2.17;;;;;;;4.21;78.71;98756.14;1743717;80;20980;-84
2022/02/07 02:50:35;;;;;;;5.40;1.70;;;;;;;4.22;78.80;98765.69;1745229;81;20983;-84
2022/02/07 02:53:09;;;;;;;8.33;2.70;;;;;;;4.21;78.77;98766.13;1745451;82;20991;-84
2022/02/07 02:55:38;;;;;;;7.22;2.35;;;;;;;4.20;78.76;98768.70;1744410;81;21830;-87
2022/02/07 02:58:06;;;;;;;10.65;2.55;;;;;;;4.16;78.78;98768.19;1745876;82;20967;-87
2022/02/07 03:00:33;;;;;;;8.48;2.85;;;;;;;4.16;78.88;98765.16;1745936;81;21469;-86
2022/02/07 03:03:00;;;;;;;10.38;2.70;;;;;;;4.12;78.69;98769.86;1745174;81;20963;-85
2022/02/07 03:05:26;;;;;;;7.55;2.10;;;;;;;4.04;78.59;98772.31;1744932;82;21587;-84
2022/02/07 03:07:53;;;;;;;11.50;2.00;;;;;;;3.96;78.58;98776.51;1745185;82;21775;-84
2022/02/07 03:10:41;;;;;;;9.80;2.67;;;;;;;3.94;78.73;98781.21;1745318;81;21031;-87
2022/02/07 03:18:15;;;;;;;7.22;2.00;;;;;;;3.92;78.89;98778.58;1745513;82;20984;-86
2022/02/07 03:20:42;;;;;;;4.28;1.50;;;;;;;3.94;78.94;98782.11;1745473;82;21752;-86
2022/02/07 03:23:08;;;;;;;5.75;1.77;;;;;;;3.94;79.01;98783.41;1745557;81;20995;-86
2022/02/07 03:25:35;;;;;;;6.22;1.75;;;;;;;3.95;78.94;98784.28;1745656;82;21505;-86
2022/02/07 03:28:02;;;;;;;6.20;1.72;;;;;;;3.89;78.86;98787.21;1745719;81;21158;-86
2022/02/07 03:30:28;;;;;;;5.37;1.62;;;;;;;3.85;78.87;98792.34;1749704;81;21018;-86
2022/02/07 03:32:55;;;;;;;5.83;1.65;;;;;;;3.81;78.88;98798.30;1746946;82;21892;-86
2022/02/07 03:35:22;;;;;;;7.90;2.08;;;;;;;3.77;78.93;98800.39;1745595;82;21018;-86
2022/02/07 03:37:48;;;;;;;5.60;1.75;;;;;;;3.77;79.10;98809.50;1745627;81;21541;-86
2022/02/07 03:40:18;;;;;;;4.95;1.67;;;;;;;3.78;79.18;98809.53;1745646;82;20989;-86
2022/02/07 03:42:45;;;;;;;5.87;1.92;;;;;;;3.76;79.16;98817.73;1745665;82;21003;-86
2022/02/07 03:45:12;;;;;;;8.33;2.00;;;;;;;3.76;79.25;98823.38;1745718;82;21724;-87
2022/02/07 03:47:38;;;;;;;8.05;1.90;;;;;;;3.76;79.29;98825.98;1745564;82;20988;-86
2022/02/07 03:50:06;;;;;;;5.72;1.60;;;;;;;3.76;79.29;98833.35;1745672;82;21015;-86
2022/02/07 03:52:33;;;;;;;7.37;1.47;;;;;;;3.77;79.27;98844.63;1745747;82;20960;-86
2022/02/07 03:55:00;;;;;;;5.35;2.00;;;;;;;3.74;79.21;98843.28;1746939;82;20984;-86
2022/02/07 03:57:26;;;;;;;6.50;1.65;;;;;;;3.69;79.12;98847.94;1745701;82;22518;-86
2022/02/07 03:59:53;;;;;;;5.03;1.47;;;;;;;3.62;79.00;98855.58;1745505;82;21019;-86
2022/02/07 04:02:20;;;;;;;2.65;1.30;;;;;;;3.54;78.95;98861.91;1751129;81;21445;-86
2022/02/07 04:04:55;;;;;;;6.83;1.60;;;;;;;3.46;78.97;98863.05;1745477;82;21032;-85
2022/02/07 04:07:16;;;;;;;4.58;1.40;;;;;;;3.42;78.99;98868.16;1739447;82;21063;-85
2022/02/07 04:09:47;;;;;;;5.20;1.67;;;;;;;3.37;79.06;98873.23;1740394;82;21795;-85
2022/02/07 04:12:17;;;;;;;5.62;1.52;;;;;;;3.36;79.19;98883.59;1740054;82;20971;-86
2022/02/07 04:14:41;;;;;;;2.50;1.17;;;;;;;3.35;79.28;98883.15;1740099;82;21019;-86
2022/02/07 04:17:11;;;;;;;5.83;1.55;;;;;;;3.33;79.26;98888.74;1740494;82;21031;-85
2022/02/07 04:19:36;;;;;;;4.85;1.85;;;;;;;3.33;79.41;98894.81;1740250;82;21485;-86
2022/02/07 04:22:06;;;;;;;6.15;1.70;;;;;;;3.31;79.33;98897.80;1740362;82;21732;-87
2022/02/07 04:24:32;;;;;;;3.87;1.60;;;;;;;3.30;79.31;98895.63;1740257;82;21492;-89
2022/02/07 04:26:59;;;;;;;6.05;1.60;;;;;;;3.32;79.44;98891.73;1740090;82;20999;-88
2022/02/07 04:29:25;;;;;;;6.12;1.92;;;;;;;3.34;79.45;98903.09;1739914;82;20979;-89
2022/02/07 04:31:52;;;;;;;10.08;2.20;;;;;;;3.36;79.39;98904.00;1739826;82;21168;-89
2022/02/07 04:34:19;;;;;;;5.78;1.92;;;;;;;3.36;79.41;98918.30;1739744;82;21730;-88
2022/02/07 04:36:49;;;;;;;4.12;1.87;;;;;;;3.40;79.52;98921.86;1739861;82;20975;-89
2022/02/07 04:39:14;;;;;;;4.50;1.60;;;;;;;3.44;79.55;98926.29;1739455;82;21437;-86
2022/02/07 04:41:42;;;;;;;6.72;1.87;;;;;;;3.52;79.60;98934.27;1739580;82;20992;-86
2022/02/07 04:44:13;;;;;;;4.72;1.98;;;;;;;3.55;79.57;98936.52;1739796;82;21026;-87
2022/02/07 04:49:42;;;;;;;5.53;1.82;;;;;;;3.63;79.46;98949.28;1735882;82;21045;-87
2022/02/07 04:52:00;;;;;;;9.83;1.77;;;;;;;3.66;79.47;98955.88;1731804;81;21545;-88
2022/02/07 04:54:47;;;;;;;6.65;1.90;;;;;;;3.70;79.37;98960.30;1734230;80;20997;-84
2022/02/07 04:59:46;;;;;;;8.70;1.60;;;;;;;3.74;79.34;98968.19;1762036;81;21944;-85
2022/02/07 05:02:14;;;;;;;8.75;2.22;;;;;;;3.75;79.30;98972.53;1760530;79;20993;-90
2022/02/07 05:04:40;;;;;;;8.30;2.55;;;;;;;3.78;79.37;98979.13;1761200;79;20998;-90
2022/02/07 05:15:18;;;;;;;12.20;4.15;;;;;;;3.77;79.27;99007.27;1762185;81;21597;-93
2022/02/07 05:17:44;;;;;;;7.72;3.52;;;;;;;3.74;79.17;99013.73;1762855;81;20977;-89
2022/02/07 05:20:11;;;;;;;8.48;3.52;;;;;;;3.68;79.20;99016.63;1762370;81;21134;-87
2022/02/07 05:22:38;;;;;;;6.72;3.27;;;;;;;3.66;79.21;99010.91;1762406;81;21467;-88
2022/02/07 05:25:06;;;;;;;8.30;2.98;;;;;;;3.62;79.30;99015.19;1762523;81;21750;-88
2022/02/07 05:27:32;;;;;;;11.90;3.45;;;;;;;3.60;79.31;99015.97;1762556;81;20981;-88
2022/02/07 05:29:59;;;;;;;9.70;3.10;;;;;;;3.56;79.37;99022.81;1761649;81;20985;-89
2022/02/07 05:32:26;;;;;;;4.33;2.22;;;;;;;3.55;79.43;99025.37;1761863;81;21029;-88
2022/02/07 05:34:53;;;;;;;5.80;2.60;;;;;;;3.52;79.43;99033.13;1762000;81;21049;-88
2022/02/07 05:37:21;;;;;;;7.55;2.40;;;;;;;3.48;79.49;99037.36;1762012;81;22442;-91
2022/02/07 05:39:53;;;;;;;10.15;2.95;;;;;;;3.47;79.54;99045.98;1761849;81;21447;-87
2022/02/07 05:42:16;;;;;;;6.78;2.65;;;;;;;3.45;79.57;99042.08;1761599;81;21867;-90
2022/02/07 05:44:46;;;;;;;6.87;1.95;;;;;;;3.42;79.46;99055.42;1762151;81;20962;-88
2022/02/07 05:47:11;;;;;;;5.78;1.95;;;;;;;3.33;79.34;99060.38;1761881;80;21452;-86
2022/02/07 05:49:38;;;;;;;9.83;2.72;;;;;;;3.26;79.37;99069.72;1762066;81;21730;-87
2022/02/07 05:52:04;;;;;;;7.60;2.00;;;;;;;3.22;79.47;99074.38;1761886;81;21442;-84
2022/02/07 05:54:31;;;;;;;8.18;2.08;;;;;;;3.21;79.61;99079.10;1743165;81;21002;-85
2022/02/07 05:56:58;;;;;;;6.92;2.35;;;;;;;3.22;79.54;99091.28;1762128;80;21041;-88
2022/02/07 05:59:24;;;;;;;4.40;1.75;;;;;;;3.20;79.54;99097.73;1762128;81;20980;-85
2022/02/07 06:01:51;;;;;;;9.05;2.15;;;;;;;3.23;79.65;99099.13;1762120;81;22569;-86
2022/02/07 06:04:17;;;;;;;7.37;2.25;;;;;;;3.26;79.59;99106.99;1771682;81;21576;-88
2022/02/07 06:06:44;;;;;;;9.10;3.05;;;;;;;3.30;79.58;99117.06;1770854;81;20980;-85
2022/02/07 06:09:11;;;;;;;9.00;3.20;;;;;;;3.33;79.59;99120.19;1762677;81;21428;-88
2022/02/07 06:11:38;;;;;;;9.93;3.60;;;;;;;3.31;79.47;99130.54;1766315;80;20990;-87
2022/02/07 06:14:04;;;;;;;8.13;3.20;;;;;;;3.26;79.27;99137.33;1751271;81;21725;-88
2022/02/07 06:16:32;;;;;;;5.83;2.60;;;;;;;3.19;79.26;99141.88;1741470;82;20965;-88
2022/02/07 06:18:59;;;;;;;11.33;2.65;;;;;;;3.16;79.44;99155.69;1741815;82;21592;-86
2022/02/07 06:21:27;;;;;;;6.65;2.65;;;;;;;3.17;79.58;99163.94;1741793;82;21462;-86
2022/02/07 06:23:55;;;;;;;7.22;2.70;;;;;;;3.19;79.67;99175.29;1741868;82;21001;-86
2022/02/07 06:26:22;;;;;;;8.23;3.22;;;;;;;3.25;79.87;99181.95;1741940;81;21739;-87
2022/02/07 06:28:49;;;;;;;9.25;3.37;;;;;;;3.30;79.82;99193.78;1732119;82;20997;-86
2022/02/07 06:31:15;;;;;;;21.45;10.00;;;;;;;3.36;79.78;99191.77;1687567;83;20971;-86
2022/02/07 06:33:42;;;;;;;9.88;4.40;;;;;;;3.34;79.45;99198.26;1740422;82;21154;-86
2022/02/07 06:36:09;;;;;;;19.87;11.10;;;;;;;3.29;79.23;99212.84;1718654;82;21003;-85
2022/02/07 06:38:35;;;;;;;15.80;9.60;;;;;;;3.21;79.22;99213.01;1720019;83;21786;-86
2022/02/07 06:41:02;;;;;;;9.28;3.90;;;;;;;3.16;79.19;99212.02;1747698;82;21428;-86
2022/02/07 06:43:28;;;;;;;10.00;3.90;;;;;;;3.14;79.21;99220.19;1747652;82;21633;-85
2022/02/07 06:45:55;;;;;;;9.40;3.92;;;;;;;3.14;79.27;99240.56;1747648;82;20978;-85
2022/02/07 06:48:22;;;;;;;10.93;3.98;;;;;;;3.15;79.27;99244.03;1747875;82;20990;-86
2022/02/07 06:50:48;;;;;;;7.53;3.15;;;;;;;3.20;79.33;99253.73;1747763;82;21717;-86
2022/02/07 06:53:15;;;;;;;7.05;3.12;;;;;;;3.24;79.33;99262.52;1747716;82;20978;-85
2022/02/07 06:55:42;;;;;;;11.88;3.25;;;;;;;3.27;79.28;99267.39;1747814;82;21006;-85
2022/02/07 06:58:08;;;;;;;7.58;3.40;;;;;;;3.31;79.21;99269.25;1747754;82;21845;-86
2022/02/07 07:00:35;;;;;;;6.97;2.87;;;;;;;3.38;79.17;99278.13;1747868;82;21037;-86
2022/02/07 07:03:01;;;;;;;9.60;4.47;;;;;;;3.41;79.04;99292.50;1747464;81;21734;-86
2022/02/07 07:05:28;;;;;;;6.65;2.95;;;;;;;3.44;78.93;99296.94;1744514;81;21018;-85
2022/02/07 07:07:55;;;;;;;7.72;2.70;;;;;;;3.48;78.90;99298.36;1724108;82;20998;-86
2022/02/07 07:10:22;;;;;;;6.42;3.05;;;;;;;3.53;78.77;99311.52;1744863;82;21469;-86
2022/02/07 07:12:57;;;;;;;8.80;3.17;;;;;;;3.55;78.66;99320.25;1744857;82;21006;-85
2022/02/07 07:18:02;;;;;;;6.28;3.08;;;;;;;3.62;78.46;99328.72;1744926;82;20994;-86
2022/02/07 07:20:29;;;;;;;8.85;2.90;;;;;;;3.62;78.17;99323.52;1744952;82;21058;-86
2022/02/07 07:22:58;;;;;;;7.78;2.40;;;;;;;3.57;77.92;99328.11;1744850;82;20992;-86
2022/02/07 07:25:24;;;;;;;5.42;2.30;;;;;;;3.51;77.88;99328.81;1744775;82;20983;-86
2022/02/07 07:28:01;;;;;;;9.00;2.22;;;;;;;3.46;77.80;99329.95;1744960;81;21883;-86
2022/02/07 07:30:28;;;;;;;9.10;2.45;;;;;;;3.45;77.90;99336.01;1744503;81;20990;-85
2022/02/07 07:32:58;;;;;;;8.35;3.25;;;;;;;3.53;78.06;99337.94;1744655;82;20990;-87
2022/02/07 07:35:22;;;;;;;8.23;2.92;;;;;;;3.59;78.07;99346.83;1744238;82;21009;-86
2022/02/07 07:37:48;;;;;;;6.55;2.60;;;;;;;3.66;78.06;99346.17;1744986;82;21494;-86
2022/02/07 07:40:15;;;;;;;5.12;2.15;;;;;;;3.73;77.96;99348.95;1744980;82;22520;-86
2022/02/07 07:42:47;;;;;;;7.47;2.98;;;;;;;3.77;77.70;99363.81;1744894;82;20983;-86
2022/02/07 07:45:11;;;;;;;9.93;3.27;;;;;;;3.77;77.67;99376.83;1744222;82;21030;-86
2022/02/07 07:47:41;;;;;;;7.37;3.60;;;;;;;3.83;77.74;99382.21;1744738;81;21022;-86
2022/02/07 07:50:17;;;;;;;7.78;3.92;;;;;;;3.85;77.63;99394.45;1744622;82;21618;-86
2022/02/07 08:01:15;;;;;;;5.75;2.12;;;;;;;3.89;77.50;99403.24;1744779;82;21448;-86
2022/02/07 08:03:25;;;;;;;8.00;2.45;;;;;;;3.61;77.17;99416.70;1745675;80;21630;-87
2022/02/07 08:06:10;;;;;;;7.17;2.40;;;;;;;3.60;77.29;99412.31;1747837;80;21987;-87
2022/02/07 08:08:32;;;;;;;5.60;2.22;;;;;;;3.59;77.32;99405.80;1744054;82;21543;-87
2022/02/07 08:13:23;;;;;;;7.78;2.60;;;;;;;3.61;77.52;99421.03;1748144;82;21003;-87
2022/02/07 08:15:48;;;;;;;9.98;4.22;;;;;;;3.63;77.62;99421.96;1747726;82;21890;-87
2022/02/07 08:18:15;;;;;;;8.18;3.17;;;;;;;3.60;77.52;99429.23;1748099;81;21740;-87
2022/02/07 08:20:42;;;;;;;6.47;2.70;;;;;;;3.59;77.60;99433.98;1748067;82;20982;-87
2022/02/07 08:23:10;;;;;;;5.78;3.00;;;;;;;3.71;77.92;99438.69;1748043;80;20994;-88
2022/02/07 08:25:37;;;;;;;8.50;3.10;;;;;;;3.97;78.29;99442.52;1748177;82;21019;-86
2022/02/07 08:28:04;;;;;;;8.95;2.98;;;;;;;4.23;78.17;99455.02;1748274;81;20979;-87
2022/02/07 08:30:33;;;;;;;7.17;2.90;;;;;;;4.40;77.87;99456.81;1748167;81;21815;-87
2022/02/07 08:33:01;;;;;;;8.25;2.60;;;;;;;4.61;77.70;99463.92;1748054;82;21005;-87
2022/02/07 08:35:27;;;;;;;8.40;2.87;;;;;;;4.75;77.22;99468.23;1748124;82;21027;-87
2022/02/07 08:37:54;;;;;;;8.20;3.22;;;;;;;4.84;77.17;99472.80;1748115;82;21014;-87
2022/02/07 08:40:22;;;;;;;7.03;2.67;;;;;;;4.96;76.87;99469.66;1748127;82;21046;-87
2022/02/07 08:42:51;;;;;;;10.82;3.58;;;;;;;5.09;76.69;99478.67;1748224;82;21810;-87
2022/02/07 08:45:19;;;;;;;8.30;2.75;;;;;;;5.15;76.34;99479.73;1748037;82;21159;-87
2022/02/07 08:47:46;;;;;;;7.42;2.65;;;;;;;5.15;76.00;99492.77;1748079;82;20955;-87
2022/02/07 08:50:12;;;;;;;8.13;3.02;;;;;;;5.08;75.69;99505.18;1748109;82;21006;-87
2022/02/07 08:52:47;;;;;;;7.67;3.00;;;;;;;4.99;75.64;99515.36;1721050;82;21038;-88
2022/02/07 08:55:15;;;;;;;6.67;2.50;;;;;;;4.84;75.39;99542.80;1721296;82;21746;-86
2022/02/07 08:57:44;;;;;;;6.60;2.65;;;;;;;4.47;75.56;99539.53;1747559;82;20997;-87
2022/02/07 09:00:34;;;;;;;9.33;3.67;;;;;;;4.12;75.75;99546.27;1747473;80;21038;-86
2022/02/07 09:08:21;;;;;;;10.70;3.17;;;;;;;4.08;78.21;99552.66;1747911;82;21803;-87
2022/02/07 09:10:35;;;;;;;13.58;3.75;;;;;;;4.21;78.18;99560.45;1745382;82;21012;-87
2022/02/07 09:13:02;;;;;;;6.03;2.70;;;;;;;4.34;78.23;99561.72;1748170;82;21061;-87
2022/02/07 09:15:32;;;;;;;7.55;2.62;;;;;;;4.29;77.82;99571.11;1748064;82;21018;-87
2022/02/07 09:18:02;;;;;;;6.30;2.40;;;;;;;4.14;77.57;99562.39;1747626;82;21464;-87
2022/02/07 09:20:25;;;;;;;7.12;2.92;;;;;;;3.99;77.60;99569.30;1747641;82;21812;-87
2022/02/07 09:22:52;;;;;;;10.13;2.90;;;;;;;3.83;77.41;99578.73;1748016;82;21013;-87
2022/02/07 09:25:19;;;;;;;9.65;2.85;;;;;;;3.70;77.57;99586.15;1748060;80;20966;-87
2022/02/07 09:27:46;;;;;;;10.78;3.00;;;;;;;3.68;78.20;99598.23;1748117;82;21469;-87
2022/02/07 09:30:12;;;;;;;6.55;2.95;;;;;;;3.84;78.70;99596.13;1748181;82;20987;-87
2022/02/07 09:32:39;;;;;;;10.35;2.65;;;;;;;4.00;78.78;99598.42;1748153;82;22560;-86
2022/02/07 09:35:06;;;;;;;8.03;3.10;;;;;;;4.08;78.36;99595.63;1748012;82;21492;-86
2022/02/07 09:37:33;;;;;;;8.05;3.00;;;;;;;4.05;78.03;99598.16;1720463;82;20962;-85
2022/02/07 09:40:00;;;;;;;9.13;2.77;;;;;;;4.09;78.23;99601.33;1747964;82;21006;-87
2022/02/07 09:42:27;;;;;;;10.85;3.35;;;;;;;4.15;78.07;99601.03;1720720;82;21033;-87
2022/02/07 09:45:03;;;;;;;10.00;3.17;;;;;;;4.21;78.21;99601.25;1748063;81;21733;-87
2022/02/07 09:47:23;;;;;;;11.73;3.70;;;;;;;4.25;78.12;99603.98;1746159;82;21030;-86
2022/02/07 09:49:50;;;;;;;9.53;2.90;;;;;;;4.28;77.88;99601.92;1747981;80;21099;-87
2022/02/07 09:52:17;;;;;;;9.83;3.27;;;;;;;4.26;77.53;99600.95;1747963;81;21017;-86
2022/02/07 09:54:45;;;;;;;10.28;3.52;;;;;;;4.24;77.49;99604.84;1747852;82;20997;-86
2022/02/07 09:57:12;;;;;;;10.20;3.08;;;;;;;4.27;77.53;99602.73;1747879;80;21743;-86
2022/02/07 09:59:39;;;;;;;13.85;3.50;;;;;;;4.29;77.47;99621.48;1747738;82;20990;-87
2022/02/07 10:02:24;;;;;;;9.20;3.05;;;;;;;4.36;77.28;99617.79;1748025;82;21513;-86
2022/02/07 10:04:51;;;;;;;10.28;3.30;;;;;;;4.44;77.26;99620.20;1747255;81;21476;-87
2022/02/07 10:07:34;;;;;;;9.20;2.60;;;;;;;4.55;77.17;99623.16;1747821;82;22005;-87
2022/02/07 10:10:01;;;;;;;11.60;2.80;;;;;;;4.65;76.98;99623.89;1745983;82;23214;-87
2022/02/07 10:15:06;;;;;;;5.97;2.75;;;;;;;4.73;76.20;99630.23;1746373;82;21019;-86
2022/02/07 10:20:11;;;;;;;8.15;2.90;;;;;;;4.95;76.36;99636.95;1747881;82;21555;-87
2022/02/07 10:22:58;;;;;;;8.33;3.22;;;;;;;5.21;76.31;99657.28;1744929;82;22561;-86
2022/02/07 10:41:58;;;;;;;10.45;3.20;;;;;;;5.31;73.59;99675.81;1747990;82;21914;-86
2022/02/07 10:44:43;;;;;;;10.98;3.42;;;;;;;5.31;73.60;99668.89;1743305;82;21228;-86
2022/02/07 10:47:13;;;;;;;9.85;2.50;;;;;;;5.27;73.52;99681.36;1745642;82;21003;-86
2022/02/07 10:49:33;;;;;;;9.45;2.60;;;;;;;5.25;73.76;99672.61;1745455;82;21758;-86
2022/02/07 10:52:00;;;;;;;11.65;2.62;;;;;;;5.36;73.37;99683.36;1748110;82;21003;-86
2022/02/07 10:54:27;;;;;;;6.05;2.25;;;;;;;5.35;73.32;99686.40;1748147;82;21005;-86
2022/02/07 10:56:54;;;;;;;5.90;2.05;;;;;;;5.39;73.31;99684.77;1747946;82;20986;-86
2022/02/07 10:59:22;;;;;;;9.35;2.40;;;;;;;5.50;73.22;99687.66;1720825;82;21018;-86
2022/02/07 11:04:33;;;;;;;8.63;2.33;;;;;;;5.61;72.77;99697.58;1747784;80;21063;-86
2022/02/07 11:07:02;;;;;;;6.47;1.98;;;;;;;5.64;72.64;99697.64;1747125;80;21011;-86
2022/02/07 11:20:27;;;;;;;5.47;1.60;;;;;;;6.09;71.67;99724.13;1747800;81;21010;-86
2022/02/07 11:25:50;;;;;;;7.40;2.47;;;;;;;6.21;71.10;99734.88;1747737;82;21002;-87
2022/02/07 11:28:24;;;;;;;8.35;2.20;;;;;;;6.18;70.42;99733.09;1746910;82;21726;-88
2022/02/07 11:30:52;;;;;;;7.85;2.50;;;;;;;6.12;70.40;99743.78;1746642;82;20983;-88
2022/02/07 11:33:58;;;;;;;7.42;2.27;;;;;;;6.08;70.26;99752.39;1748140;82;21042;-88
2022/02/07 11:36:25;;;;;;;9.80;2.17;;;;;;;5.97;70.10;99746.47;1744242;82;21147;-89
2022/02/07 11:39:17;;;;;;;9.15;2.33;;;;;;;5.88;70.02;99756.63;1746786;82;21074;-86
2022/02/07 11:42:04;;;;;;;7.40;2.30;;;;;;;5.81;69.66;99755.98;1747341;82;21737;-86
2022/02/07 11:44:45;;;;;;;8.58;2.72;;;;;;;5.75;69.81;99755.39;1747621;80;20994;-87
2022/02/07 11:47:28;;;;;;;7.55;2.33;;;;;;;5.67;69.58;99754.70;1747860;82;20971;-87
2022/02/07 11:50:03;;;;;;;8.48;2.67;;;;;;;5.52;69.14;99756.05;1747686;81;20999;-86
2022/02/07 11:52:44;;;;;;;8.70;2.20;;;;;;;5.46;69.72;99768.89;1747642;81;21037;-87
2022/02/07 11:55:20;;;;;;;6.50;2.55;;;;;;;5.51;69.02;99764.70;1747674;82;21734;-87
2022/02/07 11:57:56;;;;;;;5.67;1.98;;;;;;;5.67;69.54;99765.14;1747542;82;21002;-87
2022/02/07 12:00:23;;;;;;;5.83;2.35;;;;;;;5.83;69.41;99776.50;1746807;82;21022;-86
2022/02/07 12:02:50;;;;;;;8.30;2.50;;;;;;;5.97;69.37;99770.41;1747587;82;21006;-86
2022/02/07 12:05:19;;;;;;;6.58;1.90;;;;;;;6.06;68.81;99784.12;1747891;80;21471;-87
2022/02/07 12:08:04;;;;;;;7.25;2.10;;;;;;;6.16;68.90;99784.42;1747339;80;21839;-87
2022/02/07 12:13:04;;;;;;;9.20;2.30;;;;;;;6.20;67.89;99786.27;1718984;82;35761;-87
2022/02/07 12:15:37;;;;;;;7.62;2.08;;;;;;;6.05;67.70;99794.13;1747618;81;21030;-87
2022/02/07 12:18:18;;;;;;;6.85;1.98;;;;;;;5.97;67.97;99789.56;1722334;82;21503;-87
2022/02/07 12:20:48;;;;;;;7.58;2.22;;;;;;;5.95;67.46;99800.77;1748061;82;21889;-87
2022/02/07 12:23:18;;;;;;;7.00;2.08;;;;;;;5.86;67.37;99801.41;1748123;80;20979;-87
2022/02/07 12:25:58;;;;;;;9.70;3.12;;;;;;;5.76;67.32;99816.33;1740236;82;20993;-87
2022/02/07 12:31:02;;;;;;;6.37;2.17;;;;;;;5.82;67.99;99824.36;1748156;82;21046;-87
2022/02/07 12:33:28;;;;;;;9.08;2.90;;;;;;;5.77;68.03;99825.52;1721653;82;21741;-87
2022/02/07 12:36:00;;;;;;;7.67;2.47;;;;;;;5.67;67.92;99826.50;1747627;80;20998;-87
2022/02/07 12:38:37;;;;;;;5.87;1.90;;;;;;;5.59;68.05;99840.63;1748122;80;21011;-87
2022/02/07 12:41:05;;;;;;;6.85;2.22;;;;;;;5.58;68.08;99837.57;1747217;82;21101;-87
2022/02/07 12:43:35;;;;;;;6.97;2.22;;;;;;;5.54;68.00;99852.25;1748159;82;21906;-87
2022/02/07 12:46:03;;;;;;;6.55;1.80;;;;;;;5.41;68.14;99840.54;1748195;82;22726;-87
2022/02/07 12:48:34;;;;;;;6.97;2.25;;;;;;;5.60;68.20;99864.61;1748070;81;20990;-87
2022/02/07 12:51:01;;;;;;;7.90;2.72;;;;;;;5.72;68.39;99864.08;1748027;82;21025;-87
2022/02/07 12:53:29;;;;;;;12.73;2.12;;;;;;;5.89;68.58;99868.08;1748125;82;21111;-87
2022/02/07 12:56:00;;;;;;;10.53;2.47;;;;;;;6.10;68.53;99867.88;1747964;81;21472;-87
2022/02/07 12:58:30;;;;;;;13.50;2.72;;;;;;;6.23;68.37;99875.61;1748148;82;21723;-87
2022/02/07 13:00:57;;;;;;;6.03;1.90;;;;;;;6.25;67.96;99872.66;1747519;82;21002;-87
2022/02/07 13:03:23;;;;;;;9.15;2.30;;;;;;;6.28;67.61;99880.56;1748039;82;20986;-87
2022/02/07 13:05:50;;;;;;;10.85;2.15;;;;;;;6.29;67.27;99887.97;1747792;81;21492;-87
2022/02/07 13:08:17;;;;;;;6.33;2.20;;;;;;;6.40;67.35;99895.30;1747963;82;21026;-87
2022/02/07 13:10:56;;;;;;;7.30;2.20;;;;;;;6.40;66.76;99892.68;1748108;82;21841;-87
2022/02/07 13:13:37;;;;;;;8.90;2.50;;;;;;;6.28;66.58;99896.23;1748055;82;20990;-87
2022/02/07 13:15:57;;;;;;;8.73;2.62;;;;;;;6.15;66.95;99893.69;1746477;82;20995;-87
2022/02/07 13:18:23;;;;;;;10.10;3.00;;;;;;;6.13;66.70;99911.05;1748135;82;21027;-87
2022/02/07 13:20:51;;;;;;;12.15;3.20;;;;;;;5.98;66.72;99919.32;1748090;82;21476;-87
2022/02/07 13:23:19;;;;;;;11.03;2.95;;;;;;;5.87;66.70;99927.64;1721163;82;21690;-87
2022/02/07 13:25:53;;;;;;;9.05;2.75;;;;;;;5.76;66.58;99941.27;1748064;82;20944;-87
2022/02/07 13:28:23;;;;;;;9.08;2.35;;;;;;;5.62;66.48;99936.91;1720722;82;21014;-87
2022/02/07 13:30:53;;;;;;;7.28;2.20;;;;;;;5.50;66.65;99948.67;1748034;82;20987;-87
2022/02/07 13:33:20;;;;;;;8.43;2.10;;;;;;;5.39;66.73;99945.73;1747588;82;21030;-87
2022/02/07 13:35:49;;;;;;;10.88;2.75;;;;;;;5.28;66.38;99954.93;1748089;82;21731;-88
2022/02/07 13:38:17;;;;;;;11.05;2.37;;;;;;;5.14;66.25;99975.31;1748132;82;20974;-87
2022/02/07 13:40:48;;;;;;;7.80;2.87;;;;;;;5.01;66.44;99977.52;1748090;81;20963;-87
2022/02/07 13:43:23;;;;;;;14.78;3.55;;;;;;;4.90;66.26;99989.30;1748011;82;21120;-87
2022/02/07 13:45:56;;;;;;;12.98;3.08;;;;;;;4.79;66.43;100011.06;1746977;82;21531;-87
2022/02/07 13:48:26;;;;;;;8.58;2.52;;;;;;;4.72;66.59;99990.81;1747523;82;22561;-87
2022/02/07 13:50:56;;;;;;;8.10;2.70;;;;;;;4.64;66.64;100003.57;1747946;82;20983;-87
2022/02/07 13:53:24;;;;;;;12.95;3.00;;;;;;;4.60;66.54;100008.20;1748112;82;20998;-87
2022/02/07 13:55:53;;;;;;;10.50;2.98;;;;;;;4.53;66.79;100009.23;1721120;82;21011;-87
2022/02/07 13:58:28;;;;;;;8.55;2.15;;;;;;;4.47;67.12;100018.58;1747949;82;21026;-88
2022/02/07 14:00:58;;;;;;;7.95;3.02;;;;;;;4.44;67.01;100018.88;1740210;82;22734;-87
2022/02/07 14:03:33;;;;;;;11.33;2.55;;;;;;;4.42;67.21;100037.05;1748070;82;20979;-87
2022/02/07 14:06:14;;;;;;;10.43;2.47;;;;;;;4.42;67.09;100040.09;1747881;81;21011;-87
2022/02/07 14:08:48;;;;;;;8.33;2.87;;;;;;;4.42;67.28;100040.09;1747786;82;21094;-87